Time;durP1;ratioP1;P1;durP2;ratioP2;P2;SDS_P1;SDS_P2;PMS_P1;PMS_P2;Temp;Humidity;BMP_temperature;BMP_pressure;BME280_temperature;BME280_humidity;BME280_pressure;Samples;Min_cycle;Max_cycle;Signal;HPM_P1;HPM_P2
2022/01/30 00:00:56;;;;;;;;;;;;;;;20.23;41.36;102576.19;5008475;28;19936;-84
2022/01/30 00:03:21;;;;;;;;;;;;;;;20.25;41.39;102584.97;4998710;28;19983;-84
2022/01/30 00:05:46;;;;;;;;;;;;;;;20.26;41.33;102594.03;5014427;28;19940;-82
2022/01/30 00:08:12;;;;;;;;;;;;;;;20.26;41.57;102594.88;5006669;28;19929;-83
2022/01/30 00:10:41;;;;;;;;;;;;;;;20.27;41.44;102590.22;4995055;28;19925;-83
2022/01/30 00:13:12;;;;;;;;;;;;;;;20.28;41.48;102589.94;5033322;28;19921;-82
2022/01/30 00:15:53;;;;;;;;;;;;;;;20.28;41.41;102584.44;5016503;28;19967;-82
2022/01/30 00:21:34;;;;;;;;;;;;;;;20.28;41.40;102589.13;5015400;28;19928;-82
2022/01/30 00:23:48;;;;;;;;;;;;;;;20.29;41.21;102590.78;5029031;28;20315;-82
2022/01/30 00:26:16;;;;;;;;;;;;;;;20.29;41.54;102590.78;5000874;28;19925;-83
2022/01/30 00:28:41;;;;;;;;;;;;;;;20.29;41.43;102596.28;5014935;28;20384;-83
2022/01/30 00:31:06;;;;;;;;;;;;;;;20.29;41.53;102599.03;5029258;28;19929;-83
2022/01/30 00:33:31;;;;;;;;;;;;;;;20.27;41.47;102604.75;5015144;28;19917;-83
2022/01/30 00:35:57;;;;;;;;;;;;;;;20.28;41.60;102608.31;5013912;28;19956;-83
2022/01/30 00:38:23;;;;;;;;;;;;;;;20.28;41.50;102611.06;5034800;28;19925;-84
2022/01/30 00:40:49;;;;;;;;;;;;;;;20.27;41.32;102612.16;4999218;28;19922;-83
2022/01/30 00:43:15;;;;;;;;;;;;;;;20.27;41.16;102612.16;5023946;28;19933;-83
2022/01/30 00:45:41;;;;;;;;;;;;;;;20.26;41.39;102622.31;5029274;28;19955;-83
2022/01/30 00:48:06;;;;;;;;;;;;;;;20.25;41.25;102626.16;5032298;28;19960;-83
2022/01/30 00:50:32;;;;;;;;;;;;;;;20.25;41.23;102622.56;5014185;28;19913;-83
2022/01/30 00:52:58;;;;;;;;;;;;;;;20.25;41.40;102617.91;4995209;28;19921;-83
2022/01/30 00:55:27;;;;;;;;;;;;;;;20.24;41.18;102624.50;5017552;28;20365;-83
2022/01/30 00:57:53;;;;;;;;;;;;;;;20.24;41.31;102620.94;5003510;28;19943;-84
2022/01/30 01:00:19;;;;;;;;;;;;;;;20.24;41.07;102620.94;5034248;28;20365;-83
2022/01/30 01:02:44;;;;;;;;;;;;;;;20.22;41.26;102615.69;5015255;28;19924;-83
2022/01/30 01:05:10;;;;;;;;;;;;;;;20.22;41.22;102617.63;5026474;28;19929;-83
2022/01/30 01:07:39;;;;;;;;;;;;;;;20.22;41.27;102623.09;5033630;28;19921;-82
2022/01/30 01:10:13;;;;;;;;;;;;;;;20.19;41.25;102621.72;5017827;28;20012;-83
2022/01/30 01:21:01;;;;;;;;;;;;;;;20.17;41.11;102632.13;5028924;28;20269;-82
2022/01/30 01:23:34;;;;;;;;;;;;;;;20.17;41.13;102632.13;5012097;28;19943;-82
2022/01/30 01:26:00;;;;;;;;;;;;;;;20.16;40.97;102635.97;5030930;28;19917;-84
2022/01/30 01:28:25;;;;;;;;;;;;;;;20.16;40.94;102629.63;5022963;28;19917;-83
2022/01/30 01:30:51;;;;;;;;;;;;;;;20.14;40.98;102634.56;5003921;28;21260;-83
2022/01/30 01:33:17;;;;;;;;;;;;;;;20.13;41.17;102636.47;5008458;28;19917;-84
2022/01/30 01:35:42;;;;;;;;;;;;;;;20.13;41.11;102641.94;5025454;28;19929;-83
2022/01/30 01:38:11;;;;;;;;;;;;;;;20.12;41.10;102643.06;5011715;28;20289;-83
2022/01/30 01:40:37;;;;;;;;;;;;;;;20.12;41.03;102643.06;5012965;28;19921;-84
2022/01/30 01:43:03;;;;;;;;;;;;;;;20.11;40.83;102649.63;5030649;28;19947;-83
2022/01/30 01:45:34;;;;;;;;;;;;;;;20.10;40.82;102643.31;5013355;28;20432;-82
2022/01/30 01:48:03;;;;;;;;;;;;;;;20.09;40.80;102644.41;5015502;28;19929;-84
2022/01/30 01:50:39;;;;;;;;;;;;;;;20.09;40.82;102658.13;5014126;28;20141;-82
2022/01/30 01:53:08;;;;;;;;;;;;;;;20.09;40.87;102655.38;5015445;28;19921;-82
2022/01/30 01:55:34;;;;;;;;;;;;;;;20.08;40.74;102658.38;5014213;28;20015;-83
2022/01/30 01:57:59;;;;;;;;;;;;;;;20.07;40.93;102654.81;5014114;28;20012;-83
2022/01/30 02:00:24;;;;;;;;;;;;;;;20.06;40.96;102660.56;5000175;28;19941;-82
2022/01/30 02:02:50;;;;;;;;;;;;;;;20.05;41.00;102658.91;5011720;28;19925;-83
2022/01/30 02:05:15;;;;;;;;;;;;;;;20.05;40.77;102647.91;5008153;28;20339;-82
2022/01/30 02:10:30;;;;;;;;;;;;;;;20.04;40.92;102654.50;5028529;28;19929;-83
2022/01/30 02:13:08;;;;;;;;;;;;;;;20.03;41.02;102648.19;5021427;28;19923;-83
2022/01/30 02:23:55;;;;;;;;;;;;;;;20.02;40.78;102648.44;4998359;28;20427;-82
2022/01/30 02:24:09;;;;;;;;;;;;;;;19.99;40.86;102638.81;5026226;28;20011;-82
2022/01/30 02:26:36;;;;;;;;;;;;;;;19.99;40.85;102646.22;4999402;28;19964;-84
2022/01/30 02:29:01;;;;;;;;;;;;;;;19.98;40.94;102644.56;5014363;28;20024;-82
2022/01/30 02:31:26;;;;;;;;;;;;;;;19.97;40.73;102648.41;5027244;28;20020;-82
2022/01/30 02:33:52;;;;;;;;;;;;;;;19.97;40.83;102648.41;5008557;28;19921;-82
2022/01/30 02:36:17;;;;;;;;;;;;;;;19.96;40.83;102654.94;5008955;28;19921;-82
2022/01/30 02:38:42;;;;;;;;;;;;;;;19.97;40.69;102651.97;5011675;28;20272;-83
2022/01/30 02:41:07;;;;;;;;;;;;;;;19.96;40.93;102652.22;5027118;28;20069;-83
2022/01/30 02:43:39;;;;;;;;;;;;;;;19.94;40.73;102641.53;4996708;28;19928;-83
2022/01/30 02:46:23;;;;;;;;;;;;;;;19.94;40.75;102654.41;5000078;28;19990;-83
2022/01/30 02:48:56;;;;;;;;;;;;;;;19.93;40.81;102648.06;5014006;28;19925;-83
2022/01/30 02:51:23;;;;;;;;;;;;;;;19.93;40.98;102641.78;4994639;28;19925;-82
2022/01/30 02:54:02;;;;;;;;;;;;;;;19.93;40.83;102647.25;5029205;28;20268;-83
2022/01/30 02:56:28;;;;;;;;;;;;;;;19.92;40.94;102640.13;5016447;28;19978;-82
2022/01/30 02:58:53;;;;;;;;;;;;;;;19.91;40.71;102653.00;5029935;28;20321;-83
2022/01/30 03:01:18;;;;;;;;;;;;;;;19.90;40.75;102654.09;4983706;28;19944;-83
2022/01/30 03:03:44;;;;;;;;;;;;;;;19.90;40.76;102654.09;5010098;28;19953;-82
2022/01/30 03:06:09;;;;;;;;;;;;;;;19.89;40.63;102653.25;5000042;28;19976;-83
2022/01/30 03:08:34;;;;;;;;;;;;;;;19.89;40.78;102660.66;4996815;28;19921;-83
2022/01/30 03:11:00;;;;;;;;;;;;;;;19.88;41.04;102659.84;4991704;28;19933;-82
2022/01/30 03:13:25;;;;;;;;;;;;;;;19.88;40.73;102665.34;5026249;28;19925;-82
2022/01/30 03:15:50;;;;;;;;;;;;;;;19.87;40.84;102657.34;5018177;28;20375;-83
2022/01/30 03:18:15;;;;;;;;;;;;;;;19.87;40.80;102662.84;4993553;28;19933;-83
2022/01/30 03:20:42;;;;;;;;;;;;;;;19.86;40.79;102661.19;5013451;28;20384;-82
2022/01/30 03:23:07;;;;;;;;;;;;;;;19.85;40.62;102671.31;5025079;28;19995;-82
2022/01/30 03:25:33;;;;;;;;;;;;;;;19.85;40.79;102675.97;5028483;28;19929;-83
2022/01/30 03:28:01;;;;;;;;;;;;;;;19.84;40.78;102672.41;5013998;28;19925;-83
2022/01/30 03:30:29;;;;;;;;;;;;;;;19.83;40.53;102672.66;4996335;28;20401;-83
2022/01/30 03:32:54;;;;;;;;;;;;;;;19.82;40.79;102682.81;5007662;28;20063;-82
2022/01/30 03:35:20;;;;;;;;;;;;;;;19.83;40.73;102684.47;5000852;28;20012;-83
2022/01/30 03:37:45;;;;;;;;;;;;;;;19.81;40.67;102681.16;5009907;28;19963;-83
2022/01/30 03:40:11;;;;;;;;;;;;;;;19.81;40.67;102681.16;5005856;28;20647;-83
2022/01/30 03:42:36;;;;;;;;;;;;;;;19.80;40.50;102686.88;4995632;28;20020;-83
2022/01/30 03:45:02;;;;;;;;;;;;;;;19.79;40.45;102690.72;5021548;28;19925;-83
2022/01/30 03:47:27;;;;;;;;;;;;;;;19.78;40.54;102692.66;5028597;28;19925;-83
2022/01/30 03:49:53;;;;;;;;;;;;;;;19.78;40.59;102703.63;5005842;28;20333;-83
2022/01/30 03:52:18;;;;;;;;;;;;;;;19.78;40.56;102697.28;5010501;28;19932;-84
2022/01/30 03:54:44;;;;;;;;;;;;;;;19.78;40.45;102702.75;5007922;28;19917;-83
2022/01/30 03:57:09;;;;;;;;;;;;;;;19.77;40.51;102703.88;5014374;28;20313;-83
2022/01/30 03:59:34;;;;;;;;;;;;;;;19.75;40.17;102704.09;5017925;28;19997;-83
2022/01/30 04:02:00;;;;;;;;;;;;;;;19.75;40.23;102712.34;4997793;28;20318;-83
2022/01/30 04:04:25;;;;;;;;;;;;;;;19.76;40.43;102719.50;5030739;28;20055;-82
2022/01/30 04:06:50;;;;;;;;;;;;;;;19.75;40.45;102722.47;5011824;28;20426;-81
2022/01/30 04:09:16;;;;;;;;;;;;;;;19.73;40.53;102714.53;5023407;28;19925;-83
2022/01/30 04:11:41;;;;;;;;;;;;;;;19.74;40.46;102718.09;5006308;28;20019;-83
2022/01/30 04:14:07;;;;;;;;;;;;;;;19.73;40.46;102717.28;5014576;28;20181;-83
2022/01/30 04:16:32;;;;;;;;;;;;;;;19.72;40.29;102718.34;5035326;28;20083;-82
2022/01/30 04:18:58;;;;;;;;;;;;;;;19.72;40.20;102728.47;5010142;28;19921;-82
2022/01/30 04:21:24;;;;;;;;;;;;;;;19.71;40.40;102733.16;5025774;28;19917;-82
2022/01/30 04:23:49;;;;;;;;;;;;;;;19.70;40.23;102731.47;5025247;28;19928;-83
2022/01/30 04:26:15;;;;;;;;;;;;;;;19.70;40.40;102736.94;5015302;28;20421;-87
2022/01/30 04:28:40;;;;;;;;;;;;;;;19.69;40.11;102735.31;5025308;28;20409;-82
2022/01/30 04:31:05;;;;;;;;;;;;;;;19.69;40.09;102740.78;5026853;28;19921;-83
2022/01/30 04:33:31;;;;;;;;;;;;;;;19.67;40.14;102738.28;5007291;28;20420;-84
2022/01/30 04:36:01;;;;;;;;;;;;;;;19.68;40.23;102730.91;5010168;28;19917;-83
2022/01/30 04:38:35;;;;;;;;;;;;;;;19.68;40.21;102741.88;5030122;28;19928;-83
2022/01/30 04:41:24;;;;;;;;;;;;;;;19.66;40.15;102750.31;4997038;28;19921;-83
2022/01/30 04:52:25;;;;;;;;;;;;;;;19.64;40.06;102754.41;5030216;28;19970;-83
2022/01/30 05:08:06;;;;;;;;;;;;;;;19.62;40.21;102773.00;5029917;28;19924;-82
2022/01/30 05:10:31;;;;;;;;;;;;;;;19.60;40.02;102781.47;5014875;28;19929;-82
2022/01/30 05:12:58;;;;;;;;;;;;;;;19.59;40.09;102793.53;4999031;28;19921;-83
2022/01/30 05:15:27;;;;;;;;;;;;;;;19.61;40.15;102798.78;5011281;28;19928;-82
2022/01/30 05:17:52;;;;;;;;;;;;;;;19.58;40.00;102794.63;4995790;28;19965;-82
2022/01/30 05:20:17;;;;;;;;;;;;;;;19.59;39.86;102798.19;4996738;28;19921;-82
2022/01/30 05:22:43;;;;;;;;;;;;;;;19.58;40.12;102793.78;5010384;28;19921;-83
2022/01/30 05:25:08;;;;;;;;;;;;;;;19.58;39.94;102796.53;5035356;28;19936;-82
2022/01/30 05:27:34;;;;;;;;;;;;;;;19.56;40.00;102802.28;5009982;28;19940;-83
2022/01/30 05:29:59;;;;;;;;;;;;;;;19.57;39.78;102797.63;5033553;28;19917;-83
2022/01/30 05:32:25;;;;;;;;;;;;;;;19.55;39.74;102802.53;5027049;28;19928;-83
2022/01/30 05:34:50;;;;;;;;;;;;;;;19.54;39.79;102801.69;5028529;28;20044;-83
2022/01/30 05:37:17;;;;;;;;;;;;;;;19.55;39.96;102805.25;5027757;28;20597;-83
2022/01/30 05:39:42;;;;;;;;;;;;;;;19.54;39.89;102801.69;5012590;28;20196;-83
2022/01/30 05:42:08;;;;;;;;;;;;;;;19.53;39.84;102800.06;5011899;28;20475;-83
2022/01/30 05:45:12;;;;;;;;;;;;;;;19.52;39.78;102803.84;5013326;28;19922;-83
2022/01/30 05:47:31;;;;;;;;;;;;;;;19.52;39.72;102808.50;5027066;28;19929;-83
2022/01/30 05:49:56;;;;;;;;;;;;;;;19.52;39.86;102805.78;5014620;28;20011;-83
2022/01/30 05:52:22;;;;;;;;;;;;;;;19.52;39.95;102805.78;4997729;28;20007;-84
2022/01/30 05:54:47;;;;;;;;;;;;;;;19.50;39.79;102808.75;4997242;28;20364;-83
2022/01/30 05:57:13;;;;;;;;;;;;;;;19.49;39.79;102806.28;5002242;28;19921;-83
2022/01/30 05:59:38;;;;;;;;;;;;;;;19.49;39.79;102809.03;4999967;28;20736;-84
2022/01/30 06:02:03;;;;;;;;;;;;;;;19.49;39.75;102817.25;5018332;28;20281;-83
2022/01/30 06:04:29;;;;;;;;;;;;;;;19.48;39.61;102816.44;5025985;28;19921;-83
2022/01/30 06:06:55;;;;;;;;;;;;;;;19.47;39.87;102820.22;5012030;28;19976;-82
2022/01/30 06:09:21;;;;;;;;;;;;;;;19.47;39.89;102817.50;4992220;28;19987;-82
2022/01/30 06:11:50;;;;;;;;;;;;;;;19.46;40.01;102813.94;4992997;28;19953;-82
2022/01/30 06:14:22;;;;;;;;;;;;;;;19.46;39.83;102818.59;4997885;28;19962;-82
2022/01/30 06:16:49;;;;;;;;;;;;;;;19.45;39.81;102817.75;5016510;28;19924;-82
2022/01/30 06:19:14;;;;;;;;;;;;;;;19.46;39.72;102818.59;5018876;28;19952;-82
2022/01/30 06:21:39;;;;;;;;;;;;;;;19.45;39.73;102820.50;5031069;28;19921;-82
2022/01/30 06:24:05;;;;;;;;;;;;;;;19.44;39.69;102818.00;5027851;28;20008;-83
2022/01/30 06:26:30;;;;;;;;;;;;;;;19.43;39.75;102819.91;5025590;28;19921;-84
2022/01/30 06:28:55;;;;;;;;;;;;;;;19.44;39.66;102820.75;4993264;28;19921;-83
2022/01/30 06:31:20;;;;;;;;;;;;;;;19.43;39.81;102825.41;4996547;28;19929;-83
2022/01/30 06:33:45;;;;;;;;;;;;;;;19.42;39.66;102831.13;4994088;28;19932;-82
2022/01/30 06:36:11;;;;;;;;;;;;;;;19.42;39.81;102831.13;5007012;28;19936;-83
2022/01/30 06:38:36;;;;;;;;;;;;;;;19.41;39.61;102835.78;5012191;28;19921;-83
2022/01/30 06:41:01;;;;;;;;;;;;;;;19.41;39.81;102838.53;4994866;28;20413;-82
2022/01/30 06:43:27;;;;;;;;;;;;;;;19.41;39.57;102840.44;5010176;28;19922;-84
2022/01/30 06:45:52;;;;;;;;;;;;;;;19.41;40.08;102845.91;5011055;28;19925;-83
2022/01/30 06:48:18;;;;;;;;;;;;;;;19.40;39.72;102845.09;4995628;28;19928;-82
2022/01/30 06:50:43;;;;;;;;;;;;;;;19.40;39.73;102834.13;5009494;28;20362;-83
2022/01/30 06:53:09;;;;;;;;;;;;;;;19.39;39.79;102835.19;4992674;28;19952;-83
2022/01/30 06:55:34;;;;;;;;;;;;;;;19.38;39.74;102836.28;4994429;28;20358;-84
2022/01/30 06:57:59;;;;;;;;;;;;;;;19.39;39.63;102840.69;5014794;28;19925;-83
2022/01/30 07:00:24;;;;;;;;;;;;;;;19.39;39.61;102845.34;5000626;28;19922;-83
2022/01/30 07:02:50;;;;;;;;;;;;;;;19.38;39.67;102844.50;5000802;28;19921;-83
2022/01/30 07:05:15;;;;;;;;;;;;;;;19.38;39.65;102847.25;5006727;28;19928;-82
2022/01/30 07:07:40;;;;;;;;;;;;;;;19.37;39.64;102845.56;4990651;28;19922;-82
2022/01/30 07:10:07;;;;;;;;;;;;;;;19.37;39.65;102853.78;4997975;28;19919;-83
2022/01/30 07:12:32;;;;;;;;;;;;;;;19.36;39.68;102856.81;5000792;28;20447;-83
2022/01/30 07:14:57;;;;;;;;;;;;;;;19.36;39.77;102854.06;4991857;28;20012;-82
2022/01/30 07:17:22;;;;;;;;;;;;;;;19.34;39.61;102857.03;4994945;28;20274;-82
2022/01/30 07:19:48;;;;;;;;;;;;;;;19.34;39.75;102857.03;5002114;28;20266;-81
2022/01/30 07:22:13;;;;;;;;;;;;;;;19.34;39.67;102862.53;5011178;28;19922;-82
2022/01/30 07:24:38;;;;;;;;;;;;;;;19.34;39.54;102859.78;4977775;28;19932;-83
2022/01/30 07:27:03;;;;;;;;;;;;;;;19.33;39.54;102866.34;4992111;28;19944;-82
2022/01/30 07:29:29;;;;;;;;;;;;;;;19.32;39.51;102872.06;5020224;28;19975;-82
2022/01/30 07:31:54;;;;;;;;;;;;;;;19.32;39.53;102880.28;4995097;28;19928;-83
2022/01/30 07:34:23;;;;;;;;;;;;;;;19.31;39.73;102873.16;5031350;28;19922;-82
2022/01/30 07:36:48;;;;;;;;;;;;;;;19.31;39.58;102882.22;5026156;28;19921;-83
2022/01/30 07:39:16;;;;;;;;;;;;;;;19.30;39.76;102886.00;5023907;28;20004;-82
2022/01/30 07:41:44;;;;;;;;;;;;;;;19.29;39.78;102884.38;5027091;28;19917;-82
2022/01/30 07:44:10;;;;;;;;;;;;;;;19.30;39.53;102891.50;5005819;28;19925;-81
2022/01/30 07:46:35;;;;;;;;;;;;;;;19.30;39.55;102893.41;4996828;28;19924;-82
2022/01/30 07:49:01;;;;;;;;;;;;;;;19.28;39.71;102896.41;5007645;28;20360;-82
2022/01/30 07:51:26;;;;;;;;;;;;;;;19.29;39.72;102894.50;5028026;28;20376;-82
2022/01/30 07:53:51;;;;;;;;;;;;;;;19.28;39.61;102895.56;5010947;28;19925;-82
2022/01/30 07:56:16;;;;;;;;;;;;;;;19.28;39.61;102892.81;5027465;28;20338;-82
2022/01/30 07:58:42;;;;;;;;;;;;;;;19.27;39.46;102886.53;5006807;28;19924;-82
2022/01/30 08:01:07;;;;;;;;;;;;;;;19.27;39.47;102889.25;5006926;28;19922;-82
2022/01/30 08:03:32;;;;;;;;;;;;;;;19.27;39.63;102886.53;5010174;28;19943;-82
2022/01/30 08:05:57;;;;;;;;;;;;;;;19.27;39.37;102885.69;5011829;28;20396;-82
2022/01/30 08:08:23;;;;;;;;;;;;;;;19.26;39.67;102890.34;4994560;28;20007;-82
2022/01/30 08:10:48;;;;;;;;;;;;;;;19.26;39.46;102895.84;5029080;28;20274;-81
2022/01/30 08:13:15;;;;;;;;;;;;;;;19.26;39.67;102895.84;5026272;28;20258;-81
2022/01/30 08:15:41;;;;;;;;;;;;;;;19.26;39.60;102890.34;4996494;28;19921;-81
2022/01/30 08:18:06;;;;;;;;;;;;;;;19.25;39.53;102885.94;5013454;28;20388;-80
2022/01/30 08:20:31;;;;;;;;;;;;;;;19.24;39.65;102893.31;4998535;28;19933;-81
2022/01/30 08:22:57;;;;;;;;;;;;;;;19.24;39.33;102887.03;5007771;28;20319;-82
2022/01/30 08:25:23;;;;;;;;;;;;;;;19.24;39.47;102897.97;5012432;28;19921;-82
2022/01/30 08:27:49;;;;;;;;;;;;;;;19.24;39.70;102897.97;5016106;28;19917;-81
2022/01/30 08:30:14;;;;;;;;;;;;;;;19.24;39.47;102898.81;5030046;28;19929;-82
2022/01/30 08:32:40;;;;;;;;;;;;;;;19.23;39.67;102894.41;5010724;28;19917;-84
2022/01/30 08:35:07;;;;;;;;;;;;;;;19.23;39.48;102894.41;4988134;28;20526;-83
2022/01/30 08:37:33;;;;;;;;;;;;;;;19.23;39.49;102899.06;5003117;28;19939;-83
2022/01/30 08:39:58;;;;;;;;;;;;;;;19.22;39.33;102892.75;5009094;28;19933;-83
2022/01/30 08:42:23;;;;;;;;;;;;;;;19.21;39.65;102896.56;4997647;28;19928;-84
2022/01/30 08:44:48;;;;;;;;;;;;;;;19.22;39.45;102890.00;5007442;28;19925;-82
2022/01/30 08:47:14;;;;;;;;;;;;;;;19.21;39.87;102898.47;5012650;28;19935;-83
2022/01/30 08:49:39;;;;;;;;;;;;;;;19.21;39.68;102910.25;5031204;28;19963;-83
2022/01/30 08:52:04;;;;;;;;;;;;;;;19.21;39.58;102923.16;5012865;28;19933;-83
2022/01/30 08:54:29;;;;;;;;;;;;;;;19.20;39.44;102913.25;5030235;28;20262;-80
2022/01/30 08:56:55;;;;;;;;;;;;;;;19.21;39.69;102920.41;5015757;28;19967;-81
2022/01/30 08:59:20;;;;;;;;;;;;;;;19.20;39.81;102921.47;5015426;28;19968;-82
2022/01/30 09:01:45;;;;;;;;;;;;;;;19.19;39.82;102917.91;5002133;28;19973;-81
2022/01/30 09:04:11;;;;;;;;;;;;;;;19.20;39.88;102921.47;5012827;28;20262;-81
2022/01/30 09:06:38;;;;;;;;;;;;;;;19.19;39.51;102919.81;5029060;28;19921;-83
2022/01/30 09:09:03;;;;;;;;;;;;;;;19.18;39.56;102927.22;5030220;28;19925;-83
2022/01/30 09:11:29;;;;;;;;;;;;;;;19.19;39.68;102930.78;5012264;28;19928;-83
2022/01/30 09:13:54;;;;;;;;;;;;;;;19.19;39.73;102937.06;5029757;28;20341;-83
2022/01/30 09:16:19;;;;;;;;;;;;;;;19.21;39.79;102934.09;5011178;28;19933;-83
2022/01/30 09:18:45;;;;;;;;;;;;;;;19.20;40.03;102940.63;5013783;28;20011;-83
2022/01/30 09:21:11;;;;;;;;;;;;;;;19.23;40.07;102941.00;5032627;28;20424;-83
2022/01/30 09:23:36;;;;;;;;;;;;;;;19.24;39.92;102936.34;5011307;28;20384;-82
2022/01/30 09:26:02;;;;;;;;;;;;;;;19.26;40.02;102936.09;5029582;28;19917;-82
2022/01/30 09:28:27;;;;;;;;;;;;;;;19.27;40.13;102938.56;5014098;28;19925;-83
2022/01/30 09:30:52;;;;;;;;;;;;;;;19.30;40.09;102945.47;5015041;28;20016;-83
2022/01/30 09:33:18;;;;;;;;;;;;;;;19.32;40.15;102948.81;4997226;28;19928;-83
2022/01/30 09:35:43;;;;;;;;;;;;;;;19.34;40.18;102947.47;5029191;28;19917;-83
2022/01/30 09:38:08;;;;;;;;;;;;;;;19.35;40.38;102949.16;5029259;28;19927;-83
2022/01/30 09:40:34;;;;;;;;;;;;;;;19.38;40.38;102959.63;5033237;28;19940;-83
2022/01/30 09:42:59;;;;;;;;;;;;;;;19.41;40.18;102958.28;5026495;28;20019;-83
2022/01/30 09:45:24;;;;;;;;;;;;;;;19.42;40.30;102958.00;5020339;28;19917;-83
2022/01/30 09:47:50;;;;;;;;;;;;;;;19.45;40.27;102962.16;5022022;28;19929;-82
2022/01/30 09:50:17;;;;;;;;;;;;;;;19.46;40.26;102961.09;4996451;28;20392;-82
2022/01/30 09:52:42;;;;;;;;;;;;;;;19.48;40.31;102969.06;5029903;28;20336;-83
2022/01/30 09:55:11;;;;;;;;;;;;;;;19.50;40.47;102969.66;5033481;28;19917;-83
2022/01/30 09:57:37;;;;;;;;;;;;;;;19.52;40.55;102972.97;5013597;28;20303;-83
2022/01/30 10:00:06;;;;;;;;;;;;;;;19.54;40.45;102974.41;5011636;28;20647;-83
2022/01/30 10:02:31;;;;;;;;;;;;;;;19.56;40.44;102974.97;5011522;28;20324;-84
2022/01/30 10:04:59;;;;;;;;;;;;;;;19.56;40.43;102969.50;4993688;28;19929;-84
2022/01/30 10:07:38;;;;;;;;;;;;;;;19.58;40.54;102971.97;5010949;28;19960;-82
2022/01/30 10:10:07;;;;;;;;;;;;;;;19.61;40.55;102982.47;5029478;28;20359;-83
2022/01/30 10:12:33;;;;;;;;;;;;;;;19.62;40.65;102993.16;5010515;28;19928;-84
2022/01/30 10:15:06;;;;;;;;;;;;;;;19.63;40.54;102992.09;5016637;28;19927;-83
2022/01/30 10:17:50;;;;;;;;;;;;;;;19.65;40.74;102998.16;5012508;28;20400;-82
2022/01/30 10:20:17;;;;;;;;;;;;;;;19.68;40.66;102985.91;5034425;28;19921;-85
2022/01/30 10:22:49;;;;;;;;;;;;;;;19.71;40.79;102995.53;5012902;28;20398;-86
2022/01/30 10:25:19;;;;;;;;;;;;;;;19.72;40.94;102992.53;5014200;28;19923;-86
2022/01/30 10:27:44;;;;;;;;;;;;;;;19.75;41.07;102991.19;5028993;28;19924;-85
2022/01/30 10:30:10;;;;;;;;;;;;;;;19.78;41.22;102993.44;5009569;28;19924;-84
2022/01/30 10:32:37;;;;;;;;;;;;;;;19.78;41.35;102997.03;5032603;28;19924;-87
2022/01/30 10:35:07;;;;;;;;;;;;;;;19.80;41.24;102991.28;5015106;28;20682;-86
2022/01/30 10:37:50;;;;;;;;;;;;;;;19.80;41.56;102994.03;5016842;28;19965;-87
2022/01/30 10:40:19;;;;;;;;;;;;;;;19.83;41.38;102993.50;5007953;28;19921;-87
2022/01/30 10:42:46;;;;;;;;;;;;;;;19.83;41.61;102999.84;5006047;28;19916;-85
2022/01/30 10:45:26;;;;;;;;;;;;;;;19.85;41.49;102985.88;5002947;28;20268;-87
2022/01/30 10:48:11;;;;;;;;;;;;;;;19.85;41.24;102991.38;5023893;28;19929;-88
2022/01/30 10:50:38;;;;;;;;;;;;;;;19.84;41.19;102990.53;5021282;28;19921;-88
2022/01/30 10:53:04;;;;;;;;;;;;;;;19.84;41.29;102978.75;5022879;28;20471;-87
2022/01/30 10:55:34;;;;;;;;;;;;;;;19.85;41.17;102991.38;5006831;28;19978;-87
2022/01/30 10:58:09;;;;;;;;;;;;;;;19.84;41.11;102985.06;5021037;28;20218;-87
2022/01/30 11:00:38;;;;;;;;;;;;;;;19.85;40.93;102985.88;5012153;28;19917;-86
2022/01/30 11:03:04;;;;;;;;;;;;;;;19.84;41.17;102979.56;5012053;28;19925;-86
2022/01/30 11:05:36;;;;;;;;;;;;;;;19.83;40.74;102977.91;5009462;28;20300;-88
2022/01/30 11:08:23;;;;;;;;;;;;;;;19.82;40.74;102984.47;5027730;28;19948;-90
2022/01/30 11:11:22;;;;;;;;;;;;;;;;;;;;;
2022/01/30 11:19:28;;;;;;;;;;;;;;;;;;;;;
2022/01/30 11:22:05;;;;;;;;;;;;;;;19.78;40.29;102964.13;5033908;28;19917;-89
2022/01/30 11:24:36;;;;;;;;;;;;;;;19.77;40.26;102956.97;5026818;28;20023;-89
2022/01/30 11:27:11;;;;;;;;;;;;;;;19.76;40.07;102957.22;5006569;28;19924;-88
2022/01/30 11:29:37;;;;;;;;;;;;;;;19.74;39.74;102954.72;5011054;28;19917;-88
2022/01/30 11:32:06;;;;;;;;;;;;;;;19.73;39.92;102966.78;5012062;28;20269;-88
2022/01/30 11:34:37;;;;;;;;;;;;;;;19.71;39.63;102957.97;5011643;28;20035;-88
2022/01/30 11:37:03;;;;;;;;;;;;;;;19.69;39.62;102954.66;5030219;28;19961;-88
2022/01/30 11:39:39;;;;;;;;;;;;;;;;;;;;;
2022/01/30 11:42:12;;;;;;;;;;;;;;;19.66;39.38;102955.13;5034433;28;19913;-87
2022/01/30 11:44:43;;;;;;;;;;;;;;;19.65;39.37;102956.19;5029254;28;19933;-87
2022/01/30 11:47:09;;;;;;;;;;;;;;;19.61;39.14;102964.09;5031896;28;19920;-87
2022/01/30 11:49:41;;;;;;;;;;;;;;;19.61;38.89;102955.06;5014752;28;20266;-87
2022/01/30 11:52:10;;;;;;;;;;;;;;;19.58;38.84;102941.81;5027056;28;19917;-91
2022/01/30 11:54:49;;;;;;;;;;;;;;;19.59;38.78;102946.25;5029154;28;19921;-86
2022/01/30 11:57:20;;;;;;;;;;;;;;;19.58;39.07;102947.31;5009705;28;19971;-86
2022/01/30 11:59:46;;;;;;;;;;;;;;;19.58;38.85;102953.63;5010469;28;20452;-85
2022/01/30 12:02:23;;;;;;;;;;;;;;;19.60;38.96;102953.38;4995501;28;19932;-85
2022/01/30 12:04:59;;;;;;;;;;;;;;;19.61;39.02;102952.31;5034083;28;19913;-83
2022/01/30 12:07:32;;;;;;;;;;;;;;;19.62;39.14;102959.44;5026334;28;20357;-83
2022/01/30 12:10:18;;;;;;;;;;;;;;;19.63;39.17;102952.88;5028569;28;20521;-85
2022/01/30 12:12:58;;;;;;;;;;;;;;;19.64;39.09;102946.31;5020688;28;19929;-85
2022/01/30 12:15:39;;;;;;;;;;;;;;;19.65;39.11;102943.34;5033539;28;19921;-83
2022/01/30 12:18:05;;;;;;;;;;;;;;;19.67;38.77;102943.94;5024681;28;19920;-86
2022/01/30 12:20:51;;;;;;;;;;;;;;;19.69;39.26;102929.97;5029518;28;20362;-86
2022/01/30 12:23:26;;;;;;;;;;;;;;;19.70;39.04;102928.88;5019359;28;19921;-89
2022/01/30 12:25:58;;;;;;;;;;;;;;;19.72;39.27;102926.72;4997310;28;19959;-92
2022/01/30 12:28:51;;;;;;;;;;;;;;;19.73;39.17;102916.59;5014491;28;19943;-90
2022/01/30 12:31:38;;;;;;;;;;;;;;;19.73;38.89;102911.94;5015691;28;19921;-86
2022/01/30 12:34:07;;;;;;;;;;;;;;;19.75;39.19;102903.44;5019446;28;20026;-86
2022/01/30 12:36:35;;;;;;;;;;;;;;;19.74;39.17;102902.63;5002808;28;20054;-86
2022/01/30 12:39:02;;;;;;;;;;;;;;;19.74;39.06;102902.63;5007320;28;20002;-86
2022/01/30 12:41:28;;;;;;;;;;;;;;;19.75;39.04;102900.72;5021736;28;19933;-89
2022/01/30 12:44:07;;;;;;;;;;;;;;;;;;;;;
2022/01/30 12:46:45;;;;;;;;;;;;;;;19.76;39.27;102894.16;5029845;28;20290;-92
2022/01/30 12:49:48;;;;;;;;;;;;;;;19.76;39.19;102889.50;5015594;28;19929;-94
2022/01/30 12:55:22;;;;;;;;;;;;;;;;;;;;;
2022/01/30 12:57:57;;;;;;;;;;;;;;;19.80;39.20;102879.66;5032955;28;19917;-90
2022/01/30 13:00:35;;;;;;;;;;;;;;;;;;;;;
2022/01/30 13:03:09;;;;;;;;;;;;;;;19.81;39.51;102864.91;5005741;28;19925;-91
2022/01/30 13:06:03;;;;;;;;;;;;;;;19.82;39.29;102852.81;5012206;28;20332;-91
2022/01/30 13:08:46;;;;;;;;;;;;;;;19.83;39.18;102860.00;5015133;28;19971;-90
2022/01/30 13:11:22;;;;;;;;;;;;;;;19.83;39.27;102846.28;5009348;28;19924;-83
2022/01/30 13:13:55;;;;;;;;;;;;;;;19.83;39.30;102851.75;5026555;28;19918;-83
2022/01/30 13:16:20;;;;;;;;;;;;;;;19.85;39.29;102843.25;5014766;28;19925;-83
2022/01/30 13:18:45;;;;;;;;;;;;;;;19.85;39.07;102835.03;5014073;28;19924;-84
2022/01/30 13:21:10;;;;;;;;;;;;;;;19.83;39.27;102824.34;4993830;28;19921;-83
2022/01/30 13:23:36;;;;;;;;;;;;;;;19.84;39.18;102820.50;5008378;28;20031;-84
2022/01/30 13:26:02;;;;;;;;;;;;;;;19.84;39.31;102815.00;5017077;28;20048;-85
2022/01/30 13:28:29;;;;;;;;;;;;;;;19.84;39.40;102815.00;5004930;28;19926;-83
2022/01/30 13:31:10;;;;;;;;;;;;;;;19.84;39.25;102812.28;4995946;28;19925;-83
2022/01/30 13:33:35;;;;;;;;;;;;;;;19.84;39.15;102812.28;5001348;28;19917;-82
2022/01/30 13:36:01;;;;;;;;;;;;;;;19.84;39.03;102803.22;5021814;28;20374;-85
2022/01/30 13:38:27;;;;;;;;;;;;;;;19.84;39.25;102804.03;5025769;28;19925;-85